sensor_id;sensor_type;location;lat;lon;timestamp;temperature;humidity
33827;DHT22;20128;45.582;5.298;2022-09-20T00:01:16;15.50;52.00
33827;DHT22;20128;45.582;5.298;2022-09-20T00:03:44;15.30;52.50
33827;DHT22;20128;45.582;5.298;2022-09-20T00:06:13;15.30;52.80
33827;DHT22;20128;45.582;5.298;2022-09-20T00:08:39;15.30;52.80
33827;DHT22;20128;45.582;5.298;2022-09-20T00:11:10;15.40;52.70
33827;DHT22;20128;45.582;5.298;2022-09-20T00:13:37;15.40;52.60
33827;DHT22;20128;45.582;5.298;2022-09-20T00:16:06;15.50;52.60
33827;DHT22;20128;45.582;5.298;2022-09-20T00:18:32;15.60;52.50
33827;DHT22;20128;45.582;5.298;2022-09-20T00:20:57;15.50;52.40
33827;DHT22;20128;45.582;5.298;2022-09-20T00:23:23;15.40;52.70
33827;DHT22;20128;45.582;5.298;2022-09-20T00:26:00;15.30;52.90
33827;DHT22;20128;45.582;5.298;2022-09-20T00:28:27;15.20;53.10
33827;DHT22;20128;45.582;5.298;2022-09-20T00:30:53;15.20;53.20
33827;DHT22;20128;45.582;5.298;2022-09-20T00:33:20;15.20;53.30
33827;DHT22;20128;45.582;5.298;2022-09-20T00:35:46;15.00;53.40
33827;DHT22;20128;45.582;5.298;2022-09-20T00:38:13;15.00;53.60
33827;DHT22;20128;45.582;5.298;2022-09-20T00:40:42;14.80;53.80
33827;DHT22;20128;45.582;5.298;2022-09-20T00:43:16;14.70;54.10
33827;DHT22;20128;45.582;5.298;2022-09-20T00:45:44;14.60;54.50
33827;DHT22;20128;45.582;5.298;2022-09-20T00:48:26;14.60;54.70
33827;DHT22;20128;45.582;5.298;2022-09-20T00:51:00;14.40;55.10
33827;DHT22;20128;45.582;5.298;2022-09-20T00:53:32;14.20;55.50
33827;DHT22;20128;45.582;5.298;2022-09-20T00:55:59;14.20;55.80
33827;DHT22;20128;45.582;5.298;2022-09-20T00:58:28;14.10;55.80
33827;DHT22;20128;45.582;5.298;2022-09-20T01:00:55;14.20;55.70
33827;DHT22;20128;45.582;5.298;2022-09-20T01:03:25;14.30;55.60
33827;DHT22;20128;45.582;5.298;2022-09-20T01:05:52;14.40;55.60
33827;DHT22;20128;45.582;5.298;2022-09-20T01:08:19;14.40;55.40
33827;DHT22;20128;45.582;5.298;2022-09-20T01:10:46;14.40;55.30
33827;DHT22;20128;45.582;5.298;2022-09-20T01:13:12;14.40;55.40
33827;DHT22;20128;45.582;5.298;2022-09-20T01:15:38;14.50;55.20
33827;DHT22;20128;45.582;5.298;2022-09-20T01:18:08;14.60;55.10
33827;DHT22;20128;45.582;5.298;2022-09-20T01:20:39;14.60;55.00
33827;DHT22;20128;45.582;5.298;2022-09-20T01:28:15;14.70;54.40
33827;DHT22;20128;45.582;5.298;2022-09-20T01:30:46;14.70;54.50
33827;DHT22;20128;45.582;5.298;2022-09-20T01:33:27;14.70;54.50
33827;DHT22;20128;45.582;5.298;2022-09-20T01:35:57;14.70;55.20
33827;DHT22;20128;45.582;5.298;2022-09-20T01:38:44;14.60;54.70
33827;DHT22;20128;45.582;5.298;2022-09-20T01:41:31;14.40;55.00
33827;DHT22;20128;45.582;5.298;2022-09-20T01:46:40;14.20;55.30
33827;DHT22;20128;45.582;5.298;2022-09-20T02:00:06;14.40;55.20
33827;DHT22;20128;45.582;5.298;2022-09-20T02:13:56;14.30;55.30
33827;DHT22;20128;45.582;5.298;2022-09-20T02:16:43;14.30;55.40
33827;DHT22;20128;45.582;5.298;2022-09-20T02:22:09;14.30;55.50
33827;DHT22;20128;45.582;5.298;2022-09-20T02:46:49;14.10;55.70
33827;DHT22;20128;45.582;5.298;2022-09-20T02:49:44;14.10;55.70
33827;DHT22;20128;45.582;5.298;2022-09-20T02:52:31;13.90;55.90
33827;DHT22;20128;45.582;5.298;2022-09-20T03:00:28;13.60;56.40
33827;DHT22;20128;45.582;5.298;2022-09-20T03:03:07;13.60;56.60
33827;DHT22;20128;45.582;5.298;2022-09-20T03:27:57;13.20;57.30
33827;DHT22;20128;45.582;5.298;2022-09-20T03:35:44;13.00;58.00
33827;DHT22;20128;45.582;5.298;2022-09-20T03:46:29;13.10;57.60
33827;DHT22;20128;45.582;5.298;2022-09-20T03:58:14;13.10;57.70
33827;DHT22;20128;45.582;5.298;2022-09-20T04:00:48;13.00;57.70
33827;DHT22;20128;45.582;5.298;2022-09-20T04:03:29;13.00;57.70
33827;DHT22;20128;45.582;5.298;2022-09-20T04:16:51;13.00;57.70
33827;DHT22;20128;45.582;5.298;2022-09-20T04:22:01;13.00;57.70
33827;DHT22;20128;45.582;5.298;2022-09-20T04:27:11;12.90;58.40
33827;DHT22;20128;45.582;5.298;2022-09-20T04:29:48;12.90;58.00
33827;DHT22;20128;45.582;5.298;2022-09-20T04:32:27;12.80;57.80
33827;DHT22;20128;45.582;5.298;2022-09-20T04:35:04;12.70;58.10
33827;DHT22;20128;45.582;5.298;2022-09-20T04:38:17;12.70;58.10
33827;DHT22;20128;45.582;5.298;2022-09-20T04:55:43;12.70;58.30
33827;DHT22;20128;45.582;5.298;2022-09-20T04:58:34;12.70;58.40
33827;DHT22;20128;45.582;5.298;2022-09-20T05:24:04;12.50;58.50
33827;DHT22;20128;45.582;5.298;2022-09-20T05:29:27;12.50;58.40
33827;DHT22;20128;45.582;5.298;2022-09-20T05:32:21;12.40;58.50
33827;DHT22;20128;45.582;5.298;2022-09-20T05:35:00;12.20;58.90
33827;DHT22;20128;45.582;5.298;2022-09-20T05:43:08;12.00;59.80
33827;DHT22;20128;45.582;5.298;2022-09-20T05:49:22;12.10;59.60
33827;DHT22;20128;45.582;5.298;2022-09-20T05:54:54;12.20;59.50
33827;DHT22;20128;45.582;5.298;2022-09-20T06:00:09;12.20;59.50
33827;DHT22;20128;45.582;5.298;2022-09-20T06:03:01;12.30;59.50
33827;DHT22;20128;45.582;5.298;2022-09-20T06:05:55;12.30;59.30
33827;DHT22;20128;45.582;5.298;2022-09-20T06:14:25;12.40;59.20
33827;DHT22;20128;45.582;5.298;2022-09-20T06:17:20;12.30;59.40
33827;DHT22;20128;45.582;5.298;2022-09-20T06:22:47;12.40;59.40
33827;DHT22;20128;45.582;5.298;2022-09-20T06:27:55;12.30;59.70
33827;DHT22;20128;45.582;5.298;2022-09-20T06:30:32;12.30;60.00
33827;DHT22;20128;45.582;5.298;2022-09-20T06:33:20;12.40;60.00
33827;DHT22;20128;45.582;5.298;2022-09-20T06:36:11;12.50;59.90
33827;DHT22;20128;45.582;5.298;2022-09-20T06:39:01;12.50;59.80
33827;DHT22;20128;45.582;5.298;2022-09-20T06:41:48;12.60;59.70
33827;DHT22;20128;45.582;5.298;2022-09-20T06:44:14;12.60;59.80
33827;DHT22;20128;45.582;5.298;2022-09-20T06:46:39;12.70;59.80
33827;DHT22;20128;45.582;5.298;2022-09-20T06:49:06;12.70;59.90
33827;DHT22;20128;45.582;5.298;2022-09-20T06:51:35;12.70;60.20
33827;DHT22;20128;45.582;5.298;2022-09-20T06:54:02;12.70;60.30
33827;DHT22;20128;45.582;5.298;2022-09-20T06:56:30;12.80;60.30
33827;DHT22;20128;45.582;5.298;2022-09-20T06:58:57;12.90;60.20
33827;DHT22;20128;45.582;5.298;2022-09-20T07:01:22;13.00;60.10
33827;DHT22;20128;45.582;5.298;2022-09-20T07:03:48;13.00;60.00
33827;DHT22;20128;45.582;5.298;2022-09-20T07:06:14;13.10;60.10
33827;DHT22;20128;45.582;5.298;2022-09-20T07:08:42;13.10;60.20
33827;DHT22;20128;45.582;5.298;2022-09-20T07:11:16;13.20;60.30
33827;DHT22;20128;45.582;5.298;2022-09-20T07:13:43;13.10;60.40
33827;DHT22;20128;45.582;5.298;2022-09-20T07:16:12;13.20;60.70
33827;DHT22;20128;45.582;5.298;2022-09-20T07:18:38;13.20;60.60
33827;DHT22;20128;45.582;5.298;2022-09-20T07:21:07;13.20;60.60
33827;DHT22;20128;45.582;5.298;2022-09-20T07:23:33;13.20;60.50
33827;DHT22;20128;45.582;5.298;2022-09-20T07:25:58;13.20;60.60
33827;DHT22;20128;45.582;5.298;2022-09-20T07:28:30;13.30;60.60
33827;DHT22;20128;45.582;5.298;2022-09-20T07:30:56;13.20;60.80
33827;DHT22;20128;45.582;5.298;2022-09-20T07:33:22;13.20;60.80
33827;DHT22;20128;45.582;5.298;2022-09-20T07:35:50;13.20;61.00
33827;DHT22;20128;45.582;5.298;2022-09-20T07:38:18;13.20;61.00
33827;DHT22;20128;45.582;5.298;2022-09-20T07:40:44;13.20;61.00
33827;DHT22;20128;45.582;5.298;2022-09-20T07:43:12;13.20;61.80
33827;DHT22;20128;45.582;5.298;2022-09-20T07:45:37;13.20;61.30
33827;DHT22;20128;45.582;5.298;2022-09-20T07:48:05;13.30;61.10
33827;DHT22;20128;45.582;5.298;2022-09-20T07:50:33;13.30;61.10
33827;DHT22;20128;45.582;5.298;2022-09-20T07:52:59;13.30;61.10
33827;DHT22;20128;45.582;5.298;2022-09-20T07:55:25;13.30;61.20
33827;DHT22;20128;45.582;5.298;2022-09-20T07:57:51;13.30;61.00
33827;DHT22;20128;45.582;5.298;2022-09-20T08:00:18;13.40;61.10
33827;DHT22;20128;45.582;5.298;2022-09-20T08:02:44;13.50;61.20
33827;DHT22;20128;45.582;5.298;2022-09-20T08:05:10;13.50;60.80
33827;DHT22;20128;45.582;5.298;2022-09-20T08:07:36;13.60;60.80
33827;DHT22;20128;45.582;5.298;2022-09-20T08:10:03;13.60;60.90
33827;DHT22;20128;45.582;5.298;2022-09-20T08:12:29;13.70;60.80
33827;DHT22;20128;45.582;5.298;2022-09-20T08:14:55;13.90;60.70
33827;DHT22;20128;45.582;5.298;2022-09-20T08:17:20;13.90;60.20
33827;DHT22;20128;45.582;5.298;2022-09-20T08:19:46;14.00;60.00
33827;DHT22;20128;45.582;5.298;2022-09-20T08:22:12;14.10;59.50
33827;DHT22;20128;45.582;5.298;2022-09-20T08:24:38;14.10;59.30
33827;DHT22;20128;45.582;5.298;2022-09-20T08:27:04;14.20;59.10
33827;DHT22;20128;45.582;5.298;2022-09-20T08:29:30;14.30;59.00
33827;DHT22;20128;45.582;5.298;2022-09-20T08:31:56;14.40;58.80
33827;DHT22;20128;45.582;5.298;2022-09-20T08:34:24;14.50;58.90
33827;DHT22;20128;45.582;5.298;2022-09-20T08:36:50;14.60;58.20
33827;DHT22;20128;45.582;5.298;2022-09-20T08:39:20;14.60;58.00
33827;DHT22;20128;45.582;5.298;2022-09-20T08:42:02;14.80;58.20
33827;DHT22;20128;45.582;5.298;2022-09-20T08:44:36;15.00;58.10
33827;DHT22;20128;45.582;5.298;2022-09-20T08:47:20;15.10;57.70
33827;DHT22;20128;45.582;5.298;2022-09-20T08:49:47;15.40;57.70
33827;DHT22;20128;45.582;5.298;2022-09-20T08:52:24;15.50;57.20
33827;DHT22;20128;45.582;5.298;2022-09-20T08:54:53;15.70;56.20
33827;DHT22;20128;45.582;5.298;2022-09-20T08:57:22;15.80;55.90
33827;DHT22;20128;45.582;5.298;2022-09-20T08:59:49;16.00;56.00
33827;DHT22;20128;45.582;5.298;2022-09-20T09:02:19;16.10;55.70
33827;DHT22;20128;45.582;5.298;2022-09-20T09:04:46;16.30;53.90
33827;DHT22;20128;45.582;5.298;2022-09-20T09:07:16;16.40;53.30
33827;DHT22;20128;45.582;5.298;2022-09-20T09:09:43;16.40;53.70
33827;DHT22;20128;45.582;5.298;2022-09-20T09:12:29;16.40;53.80
33827;DHT22;20128;45.582;5.298;2022-09-20T09:15:19;16.50;54.00
33827;DHT22;20128;45.582;5.298;2022-09-20T09:17:47;16.50;53.10
33827;DHT22;20128;45.582;5.298;2022-09-20T09:22:44;16.80;53.20
33827;DHT22;20128;45.582;5.298;2022-09-20T09:28:02;17.00;52.80
33827;DHT22;20128;45.582;5.298;2022-09-20T09:30:51;17.10;51.90
33827;DHT22;20128;45.582;5.298;2022-09-20T09:33:30;17.20;52.00
33827;DHT22;20128;45.582;5.298;2022-09-20T09:38:33;17.40;51.80
33827;DHT22;20128;45.582;5.298;2022-09-20T09:41:01;17.50;51.20
33827;DHT22;20128;45.582;5.298;2022-09-20T09:43:34;17.60;51.30
33827;DHT22;20128;45.582;5.298;2022-09-20T09:46:18;17.80;50.60
33827;DHT22;20128;45.582;5.298;2022-09-20T09:48:46;17.90;49.50
33827;DHT22;20128;45.582;5.298;2022-09-20T09:51:19;18.00;49.40
33827;DHT22;20128;45.582;5.298;2022-09-20T09:53:46;18.10;49.90
33827;DHT22;20128;45.582;5.298;2022-09-20T09:59:17;18.50;49.00
33827;DHT22;20128;45.582;5.298;2022-09-20T10:15:29;19.00;47.20
33827;DHT22;20128;45.582;5.298;2022-09-20T10:18:10;19.20;47.50
33827;DHT22;20128;45.582;5.298;2022-09-20T10:24:30;19.60;46.50
33827;DHT22;20128;45.582;5.298;2022-09-20T10:27:01;19.90;46.30
33827;DHT22;20128;45.582;5.298;2022-09-20T10:32:24;20.40;45.30
33827;DHT22;20128;45.582;5.298;2022-09-20T10:35:12;20.50;44.20
33827;DHT22;20128;45.582;5.298;2022-09-20T10:41:18;20.50;43.70
33827;DHT22;20128;45.582;5.298;2022-09-20T10:44:14;20.40;44.20
33827;DHT22;20128;45.582;5.298;2022-09-20T10:49:48;20.70;44.10
33827;DHT22;20128;45.582;5.298;2022-09-20T11:08:39;21.10;42.60
33827;DHT22;20128;45.582;5.298;2022-09-20T11:11:47;21.10;43.00
33827;DHT22;20128;45.582;5.298;2022-09-20T11:14:19;21.10;43.40
33827;DHT22;20128;45.582;5.298;2022-09-20T11:19:31;21.20;42.40
33827;DHT22;20128;45.582;5.298;2022-09-20T11:26:59;21.10;42.00
33827;DHT22;20128;45.582;5.298;2022-09-20T11:32:46;21.10;42.20
33827;DHT22;20128;45.582;5.298;2022-09-20T11:34:56;21.10;42.50
33827;DHT22;20128;45.582;5.298;2022-09-20T11:37:29;21.10;42.50
33827;DHT22;20128;45.582;5.298;2022-09-20T11:40:00;21.10;42.30
33827;DHT22;20128;45.582;5.298;2022-09-20T11:42:33;21.10;42.40
33827;DHT22;20128;45.582;5.298;2022-09-20T11:45:02;21.10;42.50
33827;DHT22;20128;45.582;5.298;2022-09-20T11:53:30;21.10;42.90
33827;DHT22;20128;45.582;5.298;2022-09-20T11:56:29;21.10;42.90
33827;DHT22;20128;45.582;5.298;2022-09-20T11:59:01;21.10;43.00
33827;DHT22;20128;45.582;5.298;2022-09-20T12:01:39;21.10;42.50
33827;DHT22;20128;45.582;5.298;2022-09-20T12:04:24;21.10;43.30
33827;DHT22;20128;45.582;5.298;2022-09-20T12:06:58;21.10;42.80
33827;DHT22;20128;45.582;5.298;2022-09-20T12:09:31;21.20;43.10
33827;DHT22;20128;45.582;5.298;2022-09-20T12:12:07;21.10;42.80
33827;DHT22;20128;45.582;5.298;2022-09-20T12:14:37;21.10;42.70
33827;DHT22;20128;45.582;5.298;2022-09-20T12:17:03;21.20;42.80
33827;DHT22;20128;45.582;5.298;2022-09-20T12:24:36;21.30;42.80
33827;DHT22;20128;45.582;5.298;2022-09-20T12:29:53;21.30;42.80
33827;DHT22;20128;45.582;5.298;2022-09-20T12:32:44;21.40;42.70
33827;DHT22;20128;45.582;5.298;2022-09-20T12:43:38;21.50;41.90
33827;DHT22;20128;45.582;5.298;2022-09-20T12:47:19;21.60;42.20
33827;DHT22;20128;45.582;5.298;2022-09-20T12:52:32;21.70;41.70
33827;DHT22;20128;45.582;5.298;2022-09-20T13:03:48;21.90;40.10
33827;DHT22;20128;45.582;5.298;2022-09-20T13:11:37;21.90;40.30
33827;DHT22;20128;45.582;5.298;2022-09-20T13:16:54;22.10;40.90
33827;DHT22;20128;45.582;5.298;2022-09-20T13:19:24;22.20;40.80
33827;DHT22;20128;45.582;5.298;2022-09-20T13:24:31;22.30;40.30
33827;DHT22;20128;45.582;5.298;2022-09-20T13:27:05;22.40;39.80
33827;DHT22;20128;45.582;5.298;2022-09-20T13:29:33;22.40;39.70
33827;DHT22;20128;45.582;5.298;2022-09-20T13:34:40;22.50;39.30
33827;DHT22;20128;45.582;5.298;2022-09-20T13:37:18;22.60;39.30
33827;DHT22;20128;45.582;5.298;2022-09-20T13:39:46;22.60;39.10
33827;DHT22;20128;45.582;5.298;2022-09-20T13:42:17;22.60;39.50
33827;DHT22;20128;45.582;5.298;2022-09-20T13:44:47;22.80;39.10
33827;DHT22;20128;45.582;5.298;2022-09-20T13:47:25;22.80;38.80
33827;DHT22;20128;45.582;5.298;2022-09-20T13:49:51;22.90;38.30
33827;DHT22;20128;45.582;5.298;2022-09-20T13:52:29;23.00;38.50
33827;DHT22;20128;45.582;5.298;2022-09-20T13:54:55;23.00;38.50
33827;DHT22;20128;45.582;5.298;2022-09-20T13:57:26;23.10;37.90
33827;DHT22;20128;45.582;5.298;2022-09-20T13:59:52;23.10;38.10
33827;DHT22;20128;45.582;5.298;2022-09-20T14:02:22;23.20;37.90
33827;DHT22;20128;45.582;5.298;2022-09-20T14:04:50;23.30;38.30
33827;DHT22;20128;45.582;5.298;2022-09-20T14:07:18;23.40;38.40
33827;DHT22;20128;45.582;5.298;2022-09-20T14:09:44;23.50;37.90
33827;DHT22;20128;45.582;5.298;2022-09-20T14:12:11;23.60;38.10
33827;DHT22;20128;45.582;5.298;2022-09-20T14:14:38;23.70;37.00
33827;DHT22;20128;45.582;5.298;2022-09-20T14:17:06;23.80;37.50
33827;DHT22;20128;45.582;5.298;2022-09-20T14:19:39;24.00;36.90
33827;DHT22;20128;45.582;5.298;2022-09-20T14:22:06;24.00;36.00
33827;DHT22;20128;45.582;5.298;2022-09-20T14:24:35;24.00;36.40
33827;DHT22;20128;45.582;5.298;2022-09-20T14:27:17;24.10;36.20
33827;DHT22;20128;45.582;5.298;2022-09-20T14:29:48;24.10;36.10
33827;DHT22;20128;45.582;5.298;2022-09-20T14:37:27;24.50;35.90
33827;DHT22;20128;45.582;5.298;2022-09-20T14:40:23;24.50;35.40
33827;DHT22;20128;45.582;5.298;2022-09-20T14:45:36;24.70;35.70
33827;DHT22;20128;45.582;5.298;2022-09-20T14:48:04;24.70;35.70
33827;DHT22;20128;45.582;5.298;2022-09-20T14:50:44;24.70;35.50
33827;DHT22;20128;45.582;5.298;2022-09-20T14:55:53;24.70;35.40
33827;DHT22;20128;45.582;5.298;2022-09-20T14:58:19;24.70;35.50
33827;DHT22;20128;45.582;5.298;2022-09-20T15:03:31;24.70;35.00
33827;DHT22;20128;45.582;5.298;2022-09-20T15:05:57;24.70;34.90
33827;DHT22;20128;45.582;5.298;2022-09-20T15:08:23;24.60;35.10
33827;DHT22;20128;45.582;5.298;2022-09-20T15:10:49;24.60;35.40
33827;DHT22;20128;45.582;5.298;2022-09-20T15:13:16;24.40;35.40
33827;DHT22;20128;45.582;5.298;2022-09-20T15:15:42;24.30;35.70
33827;DHT22;20128;45.582;5.298;2022-09-20T15:18:39;24.30;35.60
33827;DHT22;20128;45.582;5.298;2022-09-20T15:21:05;24.10;35.30
33827;DHT22;20128;45.582;5.298;2022-09-20T15:23:31;24.00;35.70
33827;DHT22;20128;45.582;5.298;2022-09-20T15:25:57;24.00;36.10
33827;DHT22;20128;45.582;5.298;2022-09-20T15:28:24;23.90;35.90
33827;DHT22;20128;45.582;5.298;2022-09-20T15:30:51;23.80;36.40
33827;DHT22;20128;45.582;5.298;2022-09-20T15:33:18;23.70;35.90
33827;DHT22;20128;45.582;5.298;2022-09-20T15:35:44;23.60;35.90
33827;DHT22;20128;45.582;5.298;2022-09-20T15:38:11;23.60;36.00
33827;DHT22;20128;45.582;5.298;2022-09-20T15:40:39;23.60;36.00
33827;DHT22;20128;45.582;5.298;2022-09-20T15:43:06;23.50;36.40
33827;DHT22;20128;45.582;5.298;2022-09-20T15:45:34;23.50;36.70
33827;DHT22;20128;45.582;5.298;2022-09-20T15:48:00;23.50;36.80
33827;DHT22;20128;45.582;5.298;2022-09-20T15:50:27;23.50;36.90
33827;DHT22;20128;45.582;5.298;2022-09-20T15:52:53;23.50;36.90
33827;DHT22;20128;45.582;5.298;2022-09-20T15:55:20;23.60;36.30
33827;DHT22;20128;45.582;5.298;2022-09-20T15:57:46;23.50;36.20
33827;DHT22;20128;45.582;5.298;2022-09-20T16:00:14;23.50;36.20
33827;DHT22;20128;45.582;5.298;2022-09-20T16:02:43;23.50;36.00
33827;DHT22;20128;45.582;5.298;2022-09-20T16:05:09;23.50;36.20
33827;DHT22;20128;45.582;5.298;2022-09-20T16:07:35;23.50;36.40
33827;DHT22;20128;45.582;5.298;2022-09-20T16:10:01;23.40;36.50
33827;DHT22;20128;45.582;5.298;2022-09-20T16:12:27;23.40;36.60
33827;DHT22;20128;45.582;5.298;2022-09-20T16:14:52;23.30;36.10
33827;DHT22;20128;45.582;5.298;2022-09-20T16:17:18;23.30;36.10
33827;DHT22;20128;45.582;5.298;2022-09-20T16:20:04;23.20;36.30
33827;DHT22;20128;45.582;5.298;2022-09-20T16:22:30;23.20;36.50
33827;DHT22;20128;45.582;5.298;2022-09-20T16:24:58;23.10;36.30
33827;DHT22;20128;45.582;5.298;2022-09-20T16:27:26;23.00;36.60
33827;DHT22;20128;45.582;5.298;2022-09-20T16:29:52;22.90;36.70
33827;DHT22;20128;45.582;5.298;2022-09-20T16:32:17;22.90;36.90
33827;DHT22;20128;45.582;5.298;2022-09-20T16:34:43;22.80;37.00
33827;DHT22;20128;45.582;5.298;2022-09-20T16:37:11;22.80;37.40
33827;DHT22;20128;45.582;5.298;2022-09-20T16:39:40;22.70;37.10
33827;DHT22;20128;45.582;5.298;2022-09-20T16:42:06;22.70;37.10
33827;DHT22;20128;45.582;5.298;2022-09-20T16:44:38;22.70;37.20
33827;DHT22;20128;45.582;5.298;2022-09-20T16:47:06;22.70;38.00
33827;DHT22;20128;45.582;5.298;2022-09-20T16:49:36;22.70;37.30
33827;DHT22;20128;45.582;5.298;2022-09-20T16:52:07;22.70;37.30
33827;DHT22;20128;45.582;5.298;2022-09-20T16:54:34;22.70;37.20
33827;DHT22;20128;45.582;5.298;2022-09-20T16:57:00;22.70;37.30
33827;DHT22;20128;45.582;5.298;2022-09-20T16:59:26;22.60;37.30
33827;DHT22;20128;45.582;5.298;2022-09-20T17:01:52;22.60;37.60
33827;DHT22;20128;45.582;5.298;2022-09-20T17:04:20;22.60;37.70
33827;DHT22;20128;45.582;5.298;2022-09-20T17:06:46;22.60;37.70
33827;DHT22;20128;45.582;5.298;2022-09-20T17:09:13;22.50;37.40
33827;DHT22;20128;45.582;5.298;2022-09-20T17:11:41;22.50;37.60
33827;DHT22;20128;45.582;5.298;2022-09-20T17:14:10;22.40;37.80
33827;DHT22;20128;45.582;5.298;2022-09-20T17:16:38;22.40;37.80
33827;DHT22;20128;45.582;5.298;2022-09-20T17:21:34;22.30;38.10
33827;DHT22;20128;45.582;5.298;2022-09-20T17:24:01;22.30;38.00
33827;DHT22;20128;45.582;5.298;2022-09-20T17:26:30;22.30;38.00
33827;DHT22;20128;45.582;5.298;2022-09-20T17:28:58;22.20;38.10
33827;DHT22;20128;45.582;5.298;2022-09-20T17:31:30;22.30;38.10
33827;DHT22;20128;45.582;5.298;2022-09-20T17:33:58;22.30;38.10
33827;DHT22;20128;45.582;5.298;2022-09-20T17:36:26;22.30;38.30
33827;DHT22;20128;45.582;5.298;2022-09-20T17:38:55;22.20;38.20
33827;DHT22;20128;45.582;5.298;2022-09-20T17:41:21;22.10;38.30
33827;DHT22;20128;45.582;5.298;2022-09-20T17:43:51;22.10;38.50
33827;DHT22;20128;45.582;5.298;2022-09-20T17:46:22;22.10;38.70
33827;DHT22;20128;45.582;5.298;2022-09-20T17:48:52;22.10;38.80
33827;DHT22;20128;45.582;5.298;2022-09-20T17:51:21;22.10;38.60
33827;DHT22;20128;45.582;5.298;2022-09-20T17:53:46;22.10;38.60
33827;DHT22;20128;45.582;5.298;2022-09-20T17:56:13;22.00;38.70
33827;DHT22;20128;45.582;5.298;2022-09-20T17:58:39;21.90;38.80
33827;DHT22;20128;45.582;5.298;2022-09-20T18:01:10;21.90;39.40
33827;DHT22;20128;45.582;5.298;2022-09-20T18:03:38;21.90;39.00
33827;DHT22;20128;45.582;5.298;2022-09-20T18:06:17;21.80;39.10
33827;DHT22;20128;45.582;5.298;2022-09-20T18:08:48;21.80;38.80
33827;DHT22;20128;45.582;5.298;2022-09-20T18:11:15;21.70;38.90
33827;DHT22;20128;45.582;5.298;2022-09-20T18:13:41;21.70;38.90
33827;DHT22;20128;45.582;5.298;2022-09-20T18:16:09;21.60;39.30
33827;DHT22;20128;45.582;5.298;2022-09-20T18:18:35;21.50;39.70
33827;DHT22;20128;45.582;5.298;2022-09-20T18:21:08;21.50;39.80
33827;DHT22;20128;45.582;5.298;2022-09-20T18:23:34;21.50;40.00
33827;DHT22;20128;45.582;5.298;2022-09-20T18:26:05;21.40;40.10
33827;DHT22;20128;45.582;5.298;2022-09-20T18:31:15;21.40;40.00
33827;DHT22;20128;45.582;5.298;2022-09-20T18:33:42;21.40;39.90
33827;DHT22;20128;45.582;5.298;2022-09-20T18:36:07;21.40;39.70
33827;DHT22;20128;45.582;5.298;2022-09-20T18:38:33;21.40;39.80
33827;DHT22;20128;45.582;5.298;2022-09-20T18:41:00;21.30;39.90
33827;DHT22;20128;45.582;5.298;2022-09-20T18:43:30;21.30;40.10
33827;DHT22;20128;45.582;5.298;2022-09-20T18:45:59;21.20;40.10
33827;DHT22;20128;45.582;5.298;2022-09-20T18:48:25;21.20;40.40
33827;DHT22;20128;45.582;5.298;2022-09-20T18:50:58;21.10;40.30
33827;DHT22;20128;45.582;5.298;2022-09-20T18:53:27;21.10;40.30
33827;DHT22;20128;45.582;5.298;2022-09-20T18:55:53;21.10;40.20
33827;DHT22;20128;45.582;5.298;2022-09-20T18:58:21;21.20;40.40
33827;DHT22;20128;45.582;5.298;2022-09-20T19:00:54;21.20;40.30
33827;DHT22;20128;45.582;5.298;2022-09-20T19:03:42;21.10;40.20
33827;DHT22;20128;45.582;5.298;2022-09-20T19:06:12;21.10;40.30
33827;DHT22;20128;45.582;5.298;2022-09-20T19:09:02;21.00;40.20
33827;DHT22;20128;45.582;5.298;2022-09-20T19:11:36;20.90;40.40
33827;DHT22;20128;45.582;5.298;2022-09-20T19:14:14;20.80;41.30
33827;DHT22;20128;45.582;5.298;2022-09-20T19:16:43;20.70;40.60
33827;DHT22;20128;45.582;5.298;2022-09-20T19:19:37;20.70;40.80
33827;DHT22;20128;45.582;5.298;2022-09-20T19:27:04;20.50;41.20
33827;DHT22;20128;45.582;5.298;2022-09-20T19:29:30;20.40;41.20
33827;DHT22;20128;45.582;5.298;2022-09-20T19:31:57;20.50;41.40
33827;DHT22;20128;45.582;5.298;2022-09-20T19:34:28;20.50;41.40
33827;DHT22;20128;45.582;5.298;2022-09-20T19:42:54;20.50;41.50
33827;DHT22;20128;45.582;5.298;2022-09-20T19:45:53;20.50;41.90
33827;DHT22;20128;45.582;5.298;2022-09-20T19:48:28;20.40;41.80
33827;DHT22;20128;45.582;5.298;2022-09-20T19:50:58;20.40;41.90
33827;DHT22;20128;45.582;5.298;2022-09-20T19:53:26;20.40;42.10
33827;DHT22;20128;45.582;5.298;2022-09-20T19:56:11;20.40;42.60
33827;DHT22;20128;45.582;5.298;2022-09-20T19:58:41;20.40;43.00
33827;DHT22;20128;45.582;5.298;2022-09-20T20:01:09;20.30;42.80
33827;DHT22;20128;45.582;5.298;2022-09-20T20:03:35;20.30;43.00
33827;DHT22;20128;45.582;5.298;2022-09-20T20:11:36;20.20;43.90
33827;DHT22;20128;45.582;5.298;2022-09-20T20:25:58;20.00;44.40
33827;DHT22;20128;45.582;5.298;2022-09-20T20:28:03;19.90;44.70
33827;DHT22;20128;45.582;5.298;2022-09-20T20:30:30;19.80;44.90
33827;DHT22;20128;45.582;5.298;2022-09-20T20:32:56;19.80;45.10
33827;DHT22;20128;45.582;5.298;2022-09-20T20:35:22;19.70;45.40
33827;DHT22;20128;45.582;5.298;2022-09-20T20:37:50;19.70;45.60
33827;DHT22;20128;45.582;5.298;2022-09-20T20:40:16;19.70;45.50
33827;DHT22;20128;45.582;5.298;2022-09-20T20:42:43;19.70;45.60
33827;DHT22;20128;45.582;5.298;2022-09-20T20:45:10;19.60;45.70
33827;DHT22;20128;45.582;5.298;2022-09-20T20:47:37;19.50;45.80
33827;DHT22;20128;45.582;5.298;2022-09-20T20:50:04;19.50;46.00
33827;DHT22;20128;45.582;5.298;2022-09-20T20:52:30;19.60;45.90
33827;DHT22;20128;45.582;5.298;2022-09-20T20:54:56;19.50;45.90
33827;DHT22;20128;45.582;5.298;2022-09-20T20:57:25;19.50;45.90
33827;DHT22;20128;45.582;5.298;2022-09-20T20:59:50;19.40;45.90
33827;DHT22;20128;45.582;5.298;2022-09-20T21:02:17;19.40;46.10
33827;DHT22;20128;45.582;5.298;2022-09-20T21:04:43;19.40;46.30
33827;DHT22;20128;45.582;5.298;2022-09-20T21:07:10;19.30;46.50
33827;DHT22;20128;45.582;5.298;2022-09-20T21:09:35;19.20;46.80
33827;DHT22;20128;45.582;5.298;2022-09-20T21:12:01;19.20;46.90
33827;DHT22;20128;45.582;5.298;2022-09-20T21:14:27;19.20;47.30
33827;DHT22;20128;45.582;5.298;2022-09-20T21:16:54;19.10;47.30
33827;DHT22;20128;45.582;5.298;2022-09-20T21:19:19;19.10;47.10
33827;DHT22;20128;45.582;5.298;2022-09-20T21:21:46;19.00;47.20
33827;DHT22;20128;45.582;5.298;2022-09-20T21:24:13;19.00;47.40
33827;DHT22;20128;45.582;5.298;2022-09-20T21:26:42;19.00;47.50
33827;DHT22;20128;45.582;5.298;2022-09-20T21:29:12;19.00;47.50
33827;DHT22;20128;45.582;5.298;2022-09-20T21:31:40;18.80;47.50
33827;DHT22;20128;45.582;5.298;2022-09-20T21:34:10;18.80;47.80
33827;DHT22;20128;45.582;5.298;2022-09-20T21:36:38;18.70;47.90
33827;DHT22;20128;45.582;5.298;2022-09-20T21:39:06;18.60;48.00
33827;DHT22;20128;45.582;5.298;2022-09-20T21:41:33;18.50;48.10